createdAt,value
2016-11-17T00:00:53.946Z,0
2016-11-17T00:01:53.914Z,0
2016-11-17T00:02:54.172Z,0
2016-11-17T00:03:54.133Z,0
2016-11-17T00:04:54.399Z,0
2016-11-17T00:05:53.763Z,0
2016-11-17T00:06:54.015Z,0
2016-11-17T00:07:54.009Z,0
2016-11-17T00:08:53.949Z,0
2016-11-17T00:09:53.902Z,0
2016-11-17T00:10:53.871Z,0
2016-11-17T00:11:54.135Z,0
2016-11-17T00:12:53.796Z,0
2016-11-17T00:13:54.058Z,0
2016-11-17T00:14:53.415Z,0
2016-11-17T00:15:53.679Z,0
2016-11-17T00:16:53.646Z,0
2016-11-17T00:17:53.610Z,0
2016-11-17T00:18:53.267Z,0
2016-11-17T00:19:52.923Z,0
2016-11-17T00:20:53.800Z,0
2016-11-17T00:21:53.760Z,0
2016-11-17T00:22:53.414Z,0
2016-11-17T00:23:53.382Z,0
2016-11-17T00:24:53.676Z,0
2016-11-17T00:25:53.308Z,0
2016-11-17T00:26:53.274Z,0
2016-11-17T00:27:53.239Z,0
2016-11-17T00:28:53.490Z,0
2016-11-17T00:29:52.864Z,0
2016-11-17T00:30:53.105Z,0
2016-11-17T00:31:53.110Z,0
2016-11-17T00:32:53.034Z,0
2016-11-17T00:33:53.302Z,0
2016-11-17T00:34:52.963Z,0
2016-11-17T00:35:52.619Z,0
2016-11-17T00:36:52.889Z,0
2016-11-17T00:37:52.851Z,0
2016-11-17T00:38:52.813Z,0
2016-11-17T00:39:52.777Z,0
2016-11-17T00:40:53.040Z,0
2016-11-17T00:41:52.694Z,0
2016-11-17T00:42:52.351Z,0
2016-11-17T00:43:52.619Z,0
2016-11-17T00:44:52.587Z,0
2016-11-17T00:45:52.547Z,0
2016-11-17T00:46:52.214Z,0
2016-11-17T00:47:52.779Z,0
2016-11-17T00:48:52.431Z,0
2016-11-17T00:49:52.697Z,0
2016-11-17T00:50:52.354Z,0
2016-11-17T00:51:52.617Z,0
2016-11-17T00:52:52.303Z,0
2016-11-17T00:53:51.947Z,0
2016-11-17T00:54:52.508Z,0
2016-11-17T00:55:52.467Z,0
2016-11-17T00:56:52.130Z,0
2016-11-17T00:57:52.091Z,0
2016-11-17T00:58:52.388Z,0
2016-11-17T00:59:52.320Z,0
2016-11-17T01:00:51.671Z,0
2016-11-17T01:01:51.939Z,0
2016-11-17T01:02:52.197Z,0
2016-11-17T01:03:51.875Z,0
2016-11-17T01:04:52.156Z,0
2016-11-17T01:05:51.490Z,0
2016-11-17T01:06:51.450Z,0
2016-11-17T01:07:52.009Z,0
2016-11-17T01:08:51.985Z,0
2016-11-17T01:09:51.940Z,0
2016-11-17T01:10:51.903Z,0
2016-11-17T01:11:51.562Z,0
2016-11-17T01:12:51.826Z,0
2016-11-17T01:13:51.485Z,0
2016-11-17T01:14:51.145Z,0
2016-11-17T01:15:50.806Z,0
2016-11-17T01:16:51.374Z,0
2016-11-17T01:17:51.638Z,0
2016-11-17T01:18:51.602Z,0
2016-11-17T01:19:51.287Z,0
2016-11-17T01:20:50.917Z,0
2016-11-17T01:21:51.182Z,0
2016-11-17T01:22:51.175Z,0
2016-11-17T01:23:51.410Z,0
2016-11-17T01:24:50.766Z,0
2016-11-17T01:25:51.028Z,0
2016-11-17T01:26:50.992Z,0
2016-11-17T01:27:50.954Z,0
2016-11-17T01:28:50.618Z,0
2016-11-17T01:29:51.180Z,0
2016-11-17T01:30:50.241Z,0
2016-11-17T01:31:50.827Z,0
2016-11-17T01:32:50.462Z,0
2016-11-17T01:33:50.423Z,0
2016-11-17T01:34:50.993Z,0
2016-11-17T01:35:50.649Z,0
2016-11-17T01:36:50.615Z,0
2016-11-17T01:37:50.872Z,0
2016-11-17T01:38:50.840Z,0
2016-11-17T01:39:50.500Z,0
2016-11-17T01:40:50.465Z,0
2016-11-17T01:41:50.427Z,0
2016-11-17T01:42:50.081Z,0
2016-11-17T01:43:50.345Z,0
2016-11-17T01:44:50.614Z,0
2016-11-17T01:45:50.286Z,0
2016-11-17T01:46:50.266Z,0
2016-11-17T01:47:50.191Z,0
2016-11-17T01:48:50.159Z,0
2016-11-17T01:49:50.114Z,0
2016-11-17T01:50:50.382Z,0
2016-11-17T01:51:50.369Z,0
2016-11-17T01:52:50.002Z,0
2016-11-17T01:53:49.962Z,0
2016-11-17T01:54:50.236Z,0
2016-11-17T01:55:49.892Z,0
2016-11-17T01:56:49.857Z,0
2016-11-17T01:57:50.110Z,0
2016-11-17T01:58:49.779Z,0
2016-11-17T01:59:50.045Z,0
2016-11-17T02:00:49.704Z,0
2016-11-17T02:01:49.655Z,0
2016-11-17T02:02:49.626Z,0
2016-11-17T02:03:49.296Z,0
2016-11-17T02:04:49.547Z,0
2016-11-17T02:05:49.803Z,0
2016-11-17T02:06:49.471Z,0
2016-11-17T02:07:48.827Z,0
2016-11-17T02:08:49.692Z,0
2016-11-17T02:09:49.397Z,0
2016-11-17T02:10:49.621Z,0
2016-11-17T02:11:49.604Z,0
2016-11-17T02:12:49.553Z,0
2016-11-17T02:13:49.200Z,0
2016-11-17T02:14:49.468Z,0
2016-11-17T02:15:49.128Z,0
2016-11-17T02:16:49.391Z,0
2016-11-17T02:17:49.060Z,0
2016-11-17T02:18:49.016Z,0
2016-11-17T02:19:49.277Z,0
2016-11-17T02:20:48.935Z,0
2016-11-17T02:21:48.900Z,0
2016-11-17T02:22:49.158Z,0
2016-11-17T02:23:48.817Z,0
2016-11-17T02:24:49.090Z,0
2016-11-17T02:25:48.445Z,0
2016-11-17T02:26:49.010Z,0
2016-11-17T02:27:48.669Z,0
2016-11-17T02:28:48.632Z,0
2016-11-17T02:29:48.894Z,0
2016-11-17T02:30:48.862Z,0
2016-11-17T02:31:48.521Z,0
2016-11-17T02:32:48.479Z,0
2016-11-17T02:33:48.745Z,0
2016-11-17T02:34:48.404Z,0
2016-11-17T02:35:48.369Z,0
2016-11-17T02:36:48.325Z,0
2016-11-17T02:37:48.285Z,0
2016-11-17T02:38:48.555Z,0
2016-11-17T02:39:48.515Z,0
2016-11-17T02:40:48.178Z,0
2016-11-17T02:41:47.830Z,0
2016-11-17T02:42:48.094Z,0
2016-11-17T02:43:48.059Z,0
2016-11-17T02:44:48.022Z,0
2016-11-17T02:45:47.990Z,0
2016-11-17T02:46:47.950Z,0
2016-11-17T02:47:47.902Z,0
2016-11-17T02:48:47.881Z,0
2016-11-17T02:49:48.138Z,0
2016-11-17T02:50:48.101Z,0
2016-11-17T02:51:48.058Z,0
2016-11-17T02:52:47.714Z,0
2016-11-17T02:53:47.383Z,0
2016-11-17T02:54:47.646Z,0
2016-11-17T02:55:47.906Z,0
2016-11-17T02:56:47.870Z,0
2016-11-17T02:57:47.533Z,0
2016-11-17T02:58:47.495Z,0
2016-11-17T02:59:47.752Z,0
2016-11-17T03:00:47.415Z,0
2016-11-17T03:01:47.377Z,0
2016-11-17T03:02:47.031Z,0
2016-11-17T03:03:47.294Z,0
2016-11-17T03:04:46.963Z,0
2016-11-17T03:05:47.223Z,0
2016-11-17T03:06:47.188Z,0
2016-11-17T03:07:47.450Z,0
2016-11-17T03:08:47.114Z,0
2016-11-17T03:09:47.375Z,0
2016-11-17T03:10:46.731Z,0
2016-11-17T03:11:46.996Z,0
2016-11-17T03:12:46.658Z,0
2016-11-17T03:13:47.236Z,0
2016-11-17T03:14:46.883Z,0
2016-11-17T03:15:46.845Z,0
2016-11-17T03:16:46.209Z,0
2016-11-17T03:17:46.769Z,0
2016-11-17T03:18:47.033Z,0
2016-11-17T03:19:46.995Z,0
2016-11-17T03:20:46.655Z,0
2016-11-17T03:21:46.617Z,0
2016-11-17T03:22:46.271Z,0
2016-11-17T03:23:46.845Z,0
2016-11-17T03:24:46.814Z,0
2016-11-17T03:25:46.464Z,0
2016-11-17T03:26:46.469Z,0
2016-11-17T03:27:46.392Z,0
2016-11-17T03:28:46.372Z,0
2016-11-17T03:29:46.317Z,0
2016-11-17T03:30:46.597Z,0
2016-11-17T03:31:46.538Z,0
2016-11-17T03:32:46.202Z,0
2016-11-17T03:33:46.465Z,0
2016-11-17T03:34:46.127Z,0
2016-11-17T03:35:46.091Z,0
2016-11-17T03:36:46.346Z,0
2016-11-17T03:37:46.312Z,0
2016-11-17T03:38:46.276Z,0
2016-11-17T03:39:45.636Z,0
2016-11-17T03:40:46.199Z,0
2016-11-17T03:41:45.559Z,0
2016-11-17T03:42:46.121Z,0
2016-11-17T03:43:45.482Z,0
2016-11-17T03:44:45.739Z,0
2016-11-17T03:45:46.011Z,0
2016-11-17T03:46:45.676Z,0
2016-11-17T03:47:45.935Z,0
2016-11-17T03:48:44.690Z,0
2016-11-17T03:49:45.557Z,0
2016-11-17T03:50:45.832Z,0
2016-11-17T03:51:45.174Z,0
2016-11-17T03:52:45.442Z,0
2016-11-17T03:53:45.404Z,0
2016-11-17T03:54:45.065Z,0
2016-11-17T03:55:45.326Z,0
2016-11-17T03:56:45.291Z,0
2016-11-17T03:57:45.251Z,0
2016-11-17T03:58:45.521Z,0
2016-11-17T03:59:45.480Z,0
2016-11-17T04:00:45.436Z,0
2016-11-17T04:01:44.799Z,0
2016-11-17T04:02:45.368Z,0
2016-11-17T04:03:45.028Z,0
2016-11-17T04:04:44.991Z,0
2016-11-17T04:05:45.245Z,0
2016-11-17T04:06:44.639Z,0
2016-11-17T04:07:44.578Z,0
2016-11-17T04:08:45.137Z,0
2016-11-17T04:09:44.804Z,0
2016-11-17T04:10:45.055Z,0
2016-11-17T04:11:45.021Z,0
2016-11-17T04:12:44.681Z,0
2016-11-17T04:13:44.947Z,0
2016-11-17T04:14:44.308Z,0
2016-11-17T04:15:44.572Z,0
2016-11-17T04:16:44.233Z,0
2016-11-17T04:17:43.892Z,0
2016-11-17T04:18:44.453Z,0
2016-11-17T04:19:44.718Z,0
2016-11-17T04:20:44.383Z,0
2016-11-17T04:21:44.343Z,0
2016-11-17T04:22:44.606Z,0
2016-11-17T04:23:43.965Z,0
2016-11-17T04:24:43.928Z,0
2016-11-17T04:25:43.889Z,0
2016-11-17T04:26:43.855Z,0
2016-11-17T04:27:44.438Z,0
2016-11-17T04:28:44.379Z,0
2016-11-17T04:29:44.338Z,0
2016-11-17T04:30:44.000Z,0
2016-11-17T04:31:43.661Z,0
2016-11-17T04:32:43.928Z,0
2016-11-17T04:33:43.281Z,0
2016-11-17T04:34:43.859Z,0
2016-11-17T04:35:43.815Z,0
2016-11-17T04:36:43.468Z,0
2016-11-17T04:37:44.035Z,0
2016-11-17T04:38:44.016Z,0
2016-11-17T04:39:43.963Z,0
2016-11-17T04:40:43.960Z,0
2016-11-17T04:41:43.588Z,0
2016-11-17T04:42:43.844Z,0
2016-11-17T04:43:43.812Z,0
2016-11-17T04:44:43.467Z,0
2016-11-17T04:45:43.134Z,0
2016-11-17T04:46:43.701Z,0
2016-11-17T04:47:43.057Z,0
2016-11-17T04:48:42.722Z,0
2016-11-17T04:49:43.284Z,0
2016-11-17T04:50:42.944Z,0
2016-11-17T04:51:43.501Z,0
2016-11-17T04:52:43.169Z,0
2016-11-17T04:53:43.429Z,0
2016-11-17T04:54:43.100Z,0
2016-11-17T04:55:42.750Z,0
2016-11-17T04:56:43.049Z,0
2016-11-17T04:57:42.676Z,0
2016-11-17T04:58:42.942Z,0
2016-11-17T04:59:43.203Z,0
2016-11-17T05:00:42.861Z,0
2016-11-17T05:01:42.836Z,0
2016-11-17T05:02:42.491Z,0
2016-11-17T05:03:43.051Z,0
2016-11-17T05:04:42.413Z,0
2016-11-17T05:05:42.685Z,0
2016-11-17T05:06:42.941Z,0
2016-11-17T05:07:42.302Z,0
2016-11-17T05:08:42.863Z,0
2016-11-17T05:09:42.823Z,0
2016-11-17T05:10:42.203Z,0
2016-11-17T05:11:42.149Z,0
2016-11-17T05:12:42.714Z,0
2016-11-17T05:13:42.374Z,0
2016-11-17T05:14:42.634Z,0
2016-11-17T05:15:42.598Z,0
2016-11-17T05:16:42.258Z,0
2016-11-17T05:17:42.545Z,0
2016-11-17T05:18:42.185Z,0
2016-11-17T05:19:41.849Z,0
2016-11-17T05:20:42.142Z,0
2016-11-17T05:21:41.766Z,0
2016-11-17T05:22:41.437Z,0
2016-11-17T05:23:42.304Z,0
2016-11-17T05:24:42.255Z,0
2016-11-17T05:25:41.911Z,0
2016-11-17T05:26:41.614Z,0
2016-11-17T05:27:42.144Z,0
2016-11-17T05:28:41.501Z,0
2016-11-17T05:29:42.069Z,0
2016-11-17T05:30:41.122Z,0
2016-11-17T05:31:41.688Z,0
2016-11-17T05:32:41.984Z,0
2016-11-17T05:33:41.616Z,0
2016-11-17T05:34:41.271Z,0
2016-11-17T05:35:41.872Z,0
2016-11-17T05:36:41.804Z,0
2016-11-17T05:37:40.855Z,0
2016-11-17T05:38:41.421Z,0
2016-11-17T05:39:41.386Z,0
2016-11-17T05:40:41.651Z,0
2016-11-17T05:41:41.328Z,0
2016-11-17T05:42:41.276Z,0
2016-11-17T05:43:41.234Z,0
2016-11-17T05:44:41.195Z,0
2016-11-17T05:45:41.156Z,0
2016-11-17T05:46:41.417Z,0
2016-11-17T05:47:41.082Z,0
2016-11-17T05:48:41.382Z,0
2016-11-17T05:49:41.003Z,0
2016-11-17T05:50:41.267Z,0
2016-11-17T05:51:40.938Z,0
2016-11-17T05:52:40.594Z,0
2016-11-17T05:53:40.552Z,0
2016-11-17T05:54:40.822Z,0
2016-11-17T05:55:40.481Z,0
2016-11-17T05:56:40.142Z,0
2016-11-17T05:57:40.712Z,0
2016-11-17T05:58:40.965Z,0
2016-11-17T05:59:40.939Z,0
2016-11-17T06:00:40.893Z,0
2016-11-17T06:01:40.868Z,0
2016-11-17T06:02:40.513Z,0
2016-11-17T06:03:40.773Z,0
2016-11-17T06:04:40.439Z,0
2016-11-17T06:05:40.400Z,0
2016-11-17T06:06:40.060Z,0
2016-11-17T06:07:40.635Z,0
2016-11-17T06:08:40.290Z,0
2016-11-17T06:09:40.250Z,0
2016-11-17T06:10:40.207Z,0
2016-11-17T06:11:40.476Z,0
2016-11-17T06:12:40.134Z,0
2016-11-17T06:13:40.399Z,0
2016-11-17T06:14:40.357Z,0
2016-11-17T06:15:40.017Z,0
2016-11-17T06:16:40.284Z,0
2016-11-17T06:17:40.241Z,0
2016-11-17T06:18:39.614Z,0
2016-11-17T06:19:39.866Z,0
2016-11-17T06:20:40.126Z,0
2016-11-17T06:21:39.193Z,0
2016-11-17T06:22:40.055Z,0
2016-11-17T06:23:40.019Z,0
2016-11-17T06:24:39.987Z,0
2016-11-17T06:25:39.643Z,0
2016-11-17T06:26:39.309Z,0
2016-11-17T06:27:39.260Z,0
2016-11-17T06:28:39.521Z,0
2016-11-17T06:29:39.199Z,0
2016-11-17T06:30:39.753Z,0
2016-11-17T06:31:39.419Z,0
2016-11-17T06:32:39.382Z,0
2016-11-17T06:33:39.340Z,0
2016-11-17T06:34:39.605Z,0
2016-11-17T06:35:39.605Z,0
2016-11-17T06:36:39.528Z,0
2016-11-17T06:37:39.222Z,0
2016-11-17T06:38:39.148Z,0
2016-11-17T06:39:39.118Z,0
2016-11-17T06:40:39.070Z,0
2016-11-17T06:41:39.035Z,0
2016-11-17T06:42:38.691Z,0
2016-11-17T06:43:38.670Z,0
2016-11-17T06:44:39.221Z,0
2016-11-17T06:45:38.578Z,0
2016-11-17T06:46:38.879Z,5
2016-11-17T06:47:38.808Z,5
2016-11-17T06:48:39.070Z,5
2016-11-17T06:49:38.755Z,5
2016-11-17T06:50:38.690Z,5
2016-11-17T06:51:38.956Z,10
2016-11-17T06:52:38.318Z,10
2016-11-17T06:53:38.572Z,10
2016-11-17T06:54:38.229Z,10
2016-11-17T06:55:38.807Z,10
2016-11-17T06:56:38.469Z,10
2016-11-17T06:57:38.772Z,10
2016-11-17T06:58:38.688Z,10
2016-11-17T06:59:38.650Z,10
2016-11-17T07:00:38.005Z,15
2016-11-17T07:01:38.578Z,15
2016-11-17T07:02:38.539Z,15
2016-11-17T07:03:38.193Z,15
2016-11-17T07:04:38.156Z,15
2016-11-17T07:05:38.429Z,10
2016-11-17T07:06:37.780Z,15
2016-11-17T07:07:37.746Z,15
2016-11-17T07:08:38.303Z,10
2016-11-17T07:09:38.008Z,15
2016-11-17T07:10:37.630Z,15
2016-11-17T07:11:37.898Z,15
2016-11-17T07:12:37.856Z,15
2016-11-17T07:13:37.212Z,15
2016-11-17T07:14:37.786Z,15
2016-11-17T07:15:37.741Z,15
2016-11-17T07:16:38.035Z,15
2016-11-17T07:17:37.364Z,15
2016-11-17T07:18:37.928Z,15
2016-11-17T07:19:37.592Z,15
2016-11-17T07:20:37.549Z,15
2016-11-17T07:21:37.510Z,15
2016-11-17T07:22:37.471Z,15
2016-11-17T07:23:37.131Z,15
2016-11-17T07:24:37.398Z,20
2016-11-17T07:25:37.658Z,20
2016-11-17T07:26:37.620Z,20
2016-11-17T07:27:36.982Z,20
2016-11-17T07:28:37.547Z,20
2016-11-17T07:29:36.605Z,20
2016-11-17T07:30:37.170Z,25
2016-11-17T07:31:37.143Z,30
2016-11-17T07:32:37.107Z,30
2016-11-17T07:33:37.358Z,30
2016-11-17T07:34:37.067Z,30
2016-11-17T07:35:37.307Z,25
2016-11-17T07:36:37.248Z,30
2016-11-17T07:37:36.909Z,30
2016-11-17T07:38:37.175Z,30
2016-11-17T07:39:37.134Z,30
2016-11-17T07:40:36.504Z,30
2016-11-17T07:41:37.069Z,35
2016-11-17T07:42:36.727Z,35
2016-11-17T07:43:36.383Z,35
2016-11-17T07:44:36.351Z,35
2016-11-17T07:45:36.612Z,35
2016-11-17T07:46:36.569Z,35
2016-11-17T07:47:36.828Z,40
2016-11-17T07:48:36.794Z,40
2016-11-17T07:49:36.756Z,40
2016-11-17T07:50:36.421Z,40
2016-11-17T07:51:36.380Z,35
2016-11-17T07:52:36.348Z,35
2016-11-17T07:53:36.001Z,30
2016-11-17T07:54:35.966Z,35
2016-11-17T07:55:36.230Z,40
2016-11-17T07:56:36.187Z,45
2016-11-17T07:57:36.152Z,55
2016-11-17T07:58:36.456Z,55
2016-11-17T07:59:36.382Z,55
2016-11-17T08:00:36.050Z,55
2016-11-17T08:01:35.398Z,55
2016-11-17T08:02:36.321Z,60
2016-11-17T08:03:35.932Z,60
2016-11-17T08:04:35.893Z,60
2016-11-17T08:05:36.160Z,65
2016-11-17T08:06:35.521Z,65
2016-11-17T08:07:35.803Z,70
2016-11-17T08:08:35.736Z,80
2016-11-17T08:09:36.013Z,70
2016-11-17T08:10:35.975Z,65
2016-11-17T08:11:35.625Z,70
2016-11-17T08:12:35.593Z,70
2016-11-17T08:13:35.857Z,80
2016-11-17T08:14:35.223Z,85
2016-11-17T08:15:35.483Z,95
2016-11-17T08:16:35.141Z,135
2016-11-17T08:17:35.709Z,140
2016-11-17T08:18:35.668Z,115
2016-11-17T08:19:35.635Z,90
2016-11-17T08:20:35.294Z,75
2016-11-17T08:21:34.685Z,75
2016-11-17T08:22:34.919Z,70
2016-11-17T08:23:35.186Z,65
2016-11-17T08:24:34.882Z,55
2016-11-17T08:25:35.415Z,60
2016-11-17T08:26:35.070Z,55
2016-11-17T08:27:35.039Z,65
2016-11-17T08:28:34.692Z,65
2016-11-17T08:29:34.667Z,70
2016-11-17T08:30:34.959Z,70
2016-11-17T08:31:34.597Z,65
2016-11-17T08:32:34.852Z,70
2016-11-17T08:33:34.822Z,85
2016-11-17T08:34:34.777Z,90
2016-11-17T08:35:34.443Z,90
2016-11-17T08:36:35.013Z,90
2016-11-17T08:37:34.970Z,85
2016-11-17T08:38:34.340Z,90
2016-11-17T08:39:34.597Z,85
2016-11-17T08:40:34.869Z,85
2016-11-17T08:41:33.917Z,85
2016-11-17T08:42:34.481Z,65
2016-11-17T08:43:34.753Z,65
2016-11-17T08:44:34.710Z,60
2016-11-17T08:45:34.369Z,50
2016-11-17T08:46:34.337Z,45
2016-11-17T08:47:34.306Z,50
2016-11-17T08:48:33.968Z,50
2016-11-17T08:49:34.537Z,50
2016-11-17T08:50:33.887Z,50
2016-11-17T08:51:33.895Z,65
2016-11-17T08:52:34.118Z,75
2016-11-17T08:53:34.092Z,85
2016-11-17T08:54:33.744Z,75
2016-11-17T08:55:33.706Z,70
2016-11-17T08:56:33.973Z,90
2016-11-17T08:57:34.237Z,100
2016-11-17T08:58:33.940Z,105
2016-11-17T08:59:33.860Z,110
2016-11-17T09:00:33.827Z,100
2016-11-17T09:01:33.492Z,95
2016-11-17T09:02:33.149Z,90
2016-11-17T09:03:34.017Z,120
2016-11-17T09:04:33.978Z,135
2016-11-17T09:05:33.642Z,110
2016-11-17T09:06:33.604Z,105
2016-11-17T09:07:33.302Z,95
2016-11-17T09:08:33.535Z,95
2016-11-17T09:09:32.894Z,85
2016-11-17T09:10:33.459Z,75
2016-11-17T09:11:33.121Z,60
2016-11-17T09:12:33.691Z,65
2016-11-17T09:13:33.655Z,70
2016-11-17T09:14:33.351Z,90
2016-11-17T09:15:33.573Z,90
2016-11-17T09:16:33.545Z,95
2016-11-17T09:17:33.210Z,90
2016-11-17T09:18:33.468Z,85
2016-11-17T09:19:33.134Z,95
2016-11-17T09:20:32.489Z,95
2016-11-17T09:21:33.362Z,80
2016-11-17T09:22:33.332Z,95
2016-11-17T09:23:32.985Z,80
2016-11-17T09:24:33.254Z,70
2016-11-17T09:25:32.610Z,65
2016-11-17T09:26:32.571Z,60
2016-11-17T09:27:33.140Z,65
2016-11-17T09:28:33.107Z,60
2016-11-17T09:29:32.764Z,50
2016-11-17T09:30:32.734Z,50
2016-11-17T09:31:32.702Z,50
2016-11-17T09:32:32.956Z,50
2016-11-17T09:33:32.654Z,45
2016-11-17T09:34:32.584Z,55
2016-11-17T09:35:32.549Z,60
2016-11-17T09:36:32.528Z,55
2016-11-17T09:37:32.171Z,55
2016-11-17T09:38:32.739Z,70
2016-11-17T09:39:32.406Z,70
2016-11-17T09:40:32.384Z,55
2016-11-17T09:41:31.726Z,55
2016-11-17T09:42:32.612Z,60
2016-11-17T09:43:32.266Z,65
2016-11-17T09:44:32.216Z,60
2016-11-17T09:45:32.482Z,75
2016-11-17T09:46:32.142Z,70
2016-11-17T09:47:32.419Z,70
2016-11-17T09:48:32.375Z,70
2016-11-17T09:49:32.043Z,65
2016-11-17T09:50:32.307Z,60
2016-11-17T09:51:31.967Z,55
2016-11-17T09:52:31.931Z,55
2016-11-17T09:53:32.195Z,55
2016-11-17T09:54:31.851Z,65
2016-11-17T09:55:31.816Z,65
2016-11-17T09:56:31.776Z,80
2016-11-17T09:57:31.746Z,80
2016-11-17T09:58:32.013Z,85
2016-11-17T09:59:31.675Z,95
2016-11-17T10:00:31.641Z,105
2016-11-17T10:01:31.903Z,85
2016-11-17T10:02:31.562Z,105
2016-11-17T10:03:32.305Z,105
2016-11-17T10:04:31.816Z,95
2016-11-17T10:05:31.768Z,100
2016-11-17T10:06:31.719Z,110
2016-11-17T10:07:31.388Z,105
2016-11-17T10:08:31.645Z,85
2016-11-17T10:09:31.345Z,90
2016-11-17T10:10:31.285Z,85
2016-11-17T10:11:31.543Z,70
2016-11-17T10:12:31.497Z,75
2016-11-17T10:13:30.867Z,65
2016-11-17T10:14:31.429Z,60
2016-11-17T10:15:31.100Z,65
2016-11-17T10:16:31.064Z,65
2016-11-17T10:17:31.365Z,60
2016-11-17T10:18:31.277Z,70
2016-11-17T10:19:30.958Z,70
2016-11-17T10:20:30.913Z,75
2016-11-17T10:21:31.167Z,75
2016-11-17T10:22:31.135Z,75
2016-11-17T10:23:31.109Z,70
2016-11-17T10:24:30.459Z,70
2016-11-17T10:25:30.125Z,60
2016-11-17T10:26:30.399Z,70
2016-11-17T10:27:30.653Z,80
2016-11-17T10:28:30.648Z,95
2016-11-17T10:29:30.275Z,95
2016-11-17T10:30:30.577Z,115
2016-11-17T10:31:30.819Z,120
2016-11-17T10:32:30.466Z,130
2016-11-17T10:33:29.822Z,125
2016-11-17T10:34:30.698Z,165
2016-11-17T10:35:30.653Z,170
2016-11-17T10:36:30.628Z,175
2016-11-17T10:37:30.595Z,150
2016-11-17T10:38:30.586Z,170
2016-11-17T10:39:30.220Z,150
2016-11-17T10:40:30.175Z,125
2016-11-17T10:41:30.446Z,190
2016-11-17T10:42:30.410Z,220
2016-11-17T10:43:30.065Z,200
2016-11-17T10:44:29.727Z,190
2016-11-17T10:45:29.695Z,145
2016-11-17T10:46:29.662Z,160
2016-11-17T10:47:30.221Z,165
2016-11-17T10:48:30.190Z,170
2016-11-17T10:49:29.855Z,165
2016-11-17T10:50:29.819Z,170
2016-11-17T10:51:29.780Z,160
2016-11-17T10:52:29.747Z,185
2016-11-17T10:53:30.006Z,185
2016-11-17T10:54:29.665Z,185
2016-11-17T10:55:29.645Z,170
2016-11-17T10:56:29.894Z,120
2016-11-17T10:57:29.858Z,120
2016-11-17T10:58:28.917Z,145
2016-11-17T10:59:29.488Z,125
2016-11-17T11:00:29.185Z,130
2016-11-17T11:01:29.715Z,155
2016-11-17T11:02:28.771Z,155
2016-11-17T11:03:29.653Z,155
2016-11-17T11:04:29.058Z,140
2016-11-17T11:05:29.586Z,135
2016-11-17T11:06:29.237Z,135
2016-11-17T11:07:29.202Z,145
2016-11-17T11:08:29.476Z,155
2016-11-17T11:09:29.440Z,155
2016-11-17T11:10:29.095Z,140
2016-11-17T11:11:29.395Z,155
2016-11-17T11:12:29.026Z,145
2016-11-17T11:13:29.287Z,145
2016-11-17T11:14:29.252Z,150
2016-11-17T11:15:29.220Z,145
2016-11-17T11:16:28.893Z,110
2016-11-17T11:17:29.148Z,135
2016-11-17T11:18:29.117Z,155
2016-11-17T11:19:28.471Z,150
2016-11-17T11:20:29.036Z,150
2016-11-17T11:21:28.702Z,190
2016-11-17T11:22:28.982Z,195
2016-11-17T11:23:28.933Z,235
2016-11-17T11:24:28.908Z,245
2016-11-17T11:25:28.565Z,225
2016-11-17T11:26:28.528Z,230
2016-11-17T11:27:28.490Z,180
2016-11-17T11:28:28.789Z,160
2016-11-17T11:29:28.726Z,170
2016-11-17T11:30:28.682Z,160
2016-11-17T11:31:28.049Z,180
2016-11-17T11:32:28.030Z,175
2016-11-17T11:33:28.281Z,165
2016-11-17T11:34:28.548Z,190
2016-11-17T11:35:27.909Z,220
2016-11-17T11:36:28.173Z,205
2016-11-17T11:37:27.836Z,245
2016-11-17T11:38:27.794Z,220
2016-11-17T11:39:28.088Z,195
2016-11-17T11:40:27.435Z,205
2016-11-17T11:41:27.999Z,160
2016-11-17T11:42:27.967Z,200
2016-11-17T11:43:28.232Z,185
2016-11-17T11:44:27.589Z,175
2016-11-17T11:45:27.559Z,185
2016-11-17T11:46:27.516Z,195
2016-11-17T11:47:27.786Z,195
2016-11-17T11:48:27.754Z,200
2016-11-17T11:49:28.021Z,215
2016-11-17T11:50:27.386Z,225
2016-11-17T11:51:27.644Z,235
2016-11-17T11:52:27.911Z,230
2016-11-17T11:53:27.567Z,225
2016-11-17T11:54:27.540Z,190
2016-11-17T11:55:27.497Z,150
2016-11-17T11:56:27.470Z,150
2016-11-17T11:57:27.440Z,160
2016-11-17T11:58:27.437Z,165
2016-11-17T11:59:27.366Z,165
2016-11-17T12:00:27.327Z,175
2016-11-17T12:01:27.962Z,165
2016-11-17T12:02:26.962Z,165
2016-11-17T12:03:27.529Z,175
2016-11-17T12:04:27.194Z,190
2016-11-17T12:05:27.167Z,235
2016-11-17T12:06:27.424Z,265
2016-11-17T12:07:27.391Z,265
2016-11-17T12:08:27.353Z,245
2016-11-17T12:09:27.011Z,220
2016-11-17T12:10:27.285Z,200
2016-11-17T12:11:26.980Z,200
2016-11-17T12:12:26.606Z,195
2016-11-17T12:13:27.185Z,195
2016-11-17T12:14:26.537Z,175
2016-11-17T12:15:27.120Z,145
2016-11-17T12:16:26.483Z,140
2016-11-17T12:17:27.041Z,155
2016-11-17T12:18:26.098Z,160
2016-11-17T12:19:26.668Z,155
2016-11-17T12:20:26.635Z,160
2016-11-17T12:21:26.598Z,190
2016-11-17T12:22:26.861Z,180
2016-11-17T12:23:26.528Z,150
2016-11-17T12:24:26.495Z,135
2016-11-17T12:25:25.880Z,150
2016-11-17T12:26:25.818Z,130
2016-11-17T12:27:26.083Z,120
2016-11-17T12:28:26.357Z,110
2016-11-17T12:29:26.319Z,110
2016-11-17T12:30:26.282Z,120
2016-11-17T12:31:26.247Z,160
2016-11-17T12:32:26.212Z,155
2016-11-17T12:33:25.884Z,140
2016-11-17T12:34:26.140Z,135
2016-11-17T12:35:26.115Z,130
2016-11-17T12:36:26.073Z,115
2016-11-17T12:37:26.338Z,120
2016-11-17T12:38:26.312Z,120
2016-11-17T12:39:25.967Z,120
2016-11-17T12:40:25.935Z,120
2016-11-17T12:41:25.909Z,115
2016-11-17T12:42:26.172Z,110
2016-11-17T12:43:25.830Z,110
2016-11-17T12:44:25.790Z,125
2016-11-17T12:45:25.455Z,145
2016-11-17T12:46:26.025Z,145
2016-11-17T12:47:25.988Z,145
2016-11-17T12:48:25.652Z,145
2016-11-17T12:49:25.922Z,135
2016-11-17T12:50:25.285Z,120
2016-11-17T12:51:25.850Z,115
2016-11-17T12:52:25.816Z,110
2016-11-17T12:53:25.786Z,115
2016-11-17T12:54:25.488Z,115
2016-11-17T12:55:25.707Z,110
2016-11-17T12:56:25.374Z,110
2016-11-17T12:57:25.334Z,110
2016-11-17T12:58:25.316Z,115
2016-11-17T12:59:25.267Z,135
2016-11-17T13:00:25.234Z,135
2016-11-17T13:01:24.893Z,125
2016-11-17T13:02:24.555Z,125
2016-11-17T13:03:24.825Z,115
2016-11-17T13:04:25.088Z,120
2016-11-17T13:05:25.046Z,130
2016-11-17T13:06:25.020Z,130
2016-11-17T13:07:24.988Z,140
2016-11-17T13:08:24.952Z,150
2016-11-17T13:09:24.615Z,150
2016-11-17T13:10:24.877Z,160
2016-11-17T13:11:24.845Z,160
2016-11-17T13:12:24.811Z,155
2016-11-17T13:13:25.072Z,155
2016-11-17T13:14:25.049Z,150
2016-11-17T13:15:25.002Z,150
2016-11-17T13:16:24.670Z,155
2016-11-17T13:17:24.634Z,155
2016-11-17T13:18:24.292Z,150
2016-11-17T13:19:24.864Z,150
2016-11-17T13:20:24.224Z,145
2016-11-17T13:21:24.792Z,145
2016-11-17T13:22:24.756Z,145
2016-11-17T13:23:24.124Z,140
2016-11-17T13:24:24.078Z,140
2016-11-17T13:25:24.649Z,135
2016-11-17T13:26:24.618Z,130
2016-11-17T13:27:23.983Z,125
2016-11-17T13:28:24.297Z,125
2016-11-17T13:29:24.208Z,120
2016-11-17T13:30:24.473Z,115
2016-11-17T13:31:23.834Z,125
2016-11-17T13:32:23.800Z,140
2016-11-17T13:33:24.374Z,140
2016-11-17T13:34:24.339Z,140
2016-11-17T13:35:24.012Z,135
2016-11-17T13:36:23.988Z,140
2016-11-17T13:37:24.230Z,145
2016-11-17T13:38:24.190Z,140
2016-11-17T13:39:23.255Z,120
2016-11-17T13:40:23.821Z,115
2016-11-17T13:41:24.093Z,115
2016-11-17T13:42:24.054Z,115
2016-11-17T13:43:24.017Z,110
2016-11-17T13:44:23.974Z,115
2016-11-17T13:45:23.948Z,110
2016-11-17T13:46:23.309Z,105
2016-11-17T13:47:23.271Z,100
2016-11-17T13:48:23.239Z,100
2016-11-17T13:49:23.505Z,95
2016-11-17T13:50:23.472Z,90
2016-11-17T13:51:23.443Z,90
2016-11-17T13:52:23.442Z,85
2016-11-17T13:53:23.667Z,90
2016-11-17T13:54:23.028Z,90
2016-11-17T13:55:23.294Z,90
2016-11-17T13:56:23.568Z,90
2016-11-17T13:57:23.528Z,95
2016-11-17T13:58:23.497Z,95
2016-11-17T13:59:23.158Z,100
2016-11-17T14:00:23.425Z,100
2016-11-17T14:01:23.095Z,100
2016-11-17T14:02:22.746Z,95
2016-11-17T14:03:23.316Z,90
2016-11-17T14:04:23.287Z,90
2016-11-17T14:05:22.948Z,90
2016-11-17T14:06:22.607Z,95
2016-11-17T14:07:22.910Z,100
2016-11-17T14:08:22.842Z,100
2016-11-17T14:09:22.813Z,105
2016-11-17T14:10:22.778Z,110
2016-11-17T14:11:22.447Z,110
2016-11-17T14:12:23.003Z,105
2016-11-17T14:13:22.370Z,95
2016-11-17T14:14:22.635Z,95
2016-11-17T14:15:22.299Z,95
2016-11-17T14:16:22.867Z,95
2016-11-17T14:17:22.230Z,95
2016-11-17T14:18:22.202Z,90
2016-11-17T14:19:22.161Z,90
2016-11-17T14:20:22.727Z,95
2016-11-17T14:21:22.691Z,95
2016-11-17T14:22:22.659Z,95